Time;durP1;ratioP1;P1;durP2;ratioP2;P2;SDS_P1;SDS_P2;PMS_P1;PMS_P2;Temp;Humidity;BMP_temperature;BMP_pressure;BME280_temperature;BME280_humidity;BME280_pressure;Samples;Min_cycle;Max_cycle;Signal;HPM_P1;HPM_P2
2022/05/05 00:02:00;;;;;;;19.37;16.67;;;13.80;97.00;;;;;;5029088;28;20485;-54
2022/05/05 00:04:26;;;;;;;18.37;15.93;;;13.60;97.60;;;;;;5065723;28;20532;-54
2022/05/05 00:06:53;;;;;;;18.63;15.00;;;13.50;97.80;;;;;;5036265;28;20489;-54
2022/05/05 00:09:20;;;;;;;22.23;16.20;;;13.40;97.80;;;;;;5037376;28;20470;-53
2022/05/05 00:14:32;;;;;;;21.07;15.70;;;13.50;97.80;;;;;;5038550;28;20487;-53
2022/05/05 00:17:01;;;;;;;17.13;14.90;;;13.60;97.50;;;;;;5035878;28;20943;-54
2022/05/05 00:19:29;;;;;;;18.40;14.90;;;13.70;97.20;;;;;;5033693;28;20483;-53
2022/05/05 00:21:56;;;;;;;20.53;17.20;;;13.90;97.10;;;;;;5025212;28;20978;-54
2022/05/05 00:24:23;;;;;;;17.63;15.57;;;13.80;96.80;;;;;;5038867;28;20496;-54
2022/05/05 00:26:50;;;;;;;17.80;15.50;;;13.80;96.80;;;;;;5066271;28;20493;-54
2022/05/05 00:29:17;;;;;;;25.07;16.37;;;13.80;97.00;;;;;;5035710;28;20488;-53
2022/05/05 00:31:44;;;;;;;19.43;16.53;;;13.60;97.10;;;;;;5032420;28;20487;-54
2022/05/05 00:34:12;;;;;;;23.90;18.10;;;13.50;97.40;;;;;;5036604;28;20540;-54
2022/05/05 00:36:39;;;;;;;25.27;17.33;;;13.50;97.60;;;;;;5035329;28;20477;-54
2022/05/05 00:39:08;;;;;;;24.30;19.30;;;13.50;97.60;;;;;;5033175;28;20504;-53
2022/05/05 00:41:35;;;;;;;20.13;17.77;;;13.50;97.80;;;;;;5035510;28;20998;-53
2022/05/05 00:44:03;;;;;;;39.30;18.20;;;13.40;98.40;;;;;;5035600;28;20491;-53
2022/05/05 00:46:30;;;;;;;31.47;22.40;;;13.20;98.80;;;;;;5036967;28;20487;-53
2022/05/05 00:48:56;;;;;;;24.90;21.50;;;13.00;99.40;;;;;;5035259;28;20476;-54
2022/05/05 00:51:25;;;;;;;29.43;22.00;;;12.90;99.90;;;;;;5040157;28;20485;-53
2022/05/05 00:53:52;;;;;;;26.07;21.53;;;12.90;99.90;;;;;;5036135;28;20562;-54
2022/05/05 00:56:19;;;;;;;27.63;21.50;;;12.90;99.90;;;;;;5037524;28;20599;-54
2022/05/05 00:58:47;;;;;;;33.10;22.07;;;12.90;99.90;;;;;;5029904;28;20470;-54
2022/05/05 01:01:18;;;;;;;31.20;21.53;;;12.90;99.90;;;;;;5037078;28;20474;-54
2022/05/05 01:03:45;;;;;;;32.83;20.80;;;12.90;99.90;;;;;;5036971;28;20494;-54
2022/05/05 01:06:13;;;;;;;40.70;23.50;;;12.90;99.90;;;;;;5032970;28;20522;-54
2022/05/05 01:08:41;;;;;;;32.43;23.07;;;12.90;99.90;;;;;;5051621;28;20475;-54
2022/05/05 01:11:08;;;;;;;32.30;22.60;;;12.80;99.90;;;;;;5034680;28;20498;-54
2022/05/05 01:13:39;;;;;;;30.90;21.47;;;12.80;99.90;;;;;;5036128;28;20557;-54
2022/05/05 01:16:06;;;;;;;31.33;22.17;;;12.80;99.90;;;;;;5039729;28;20492;-54
2022/05/05 01:18:32;;;;;;;28.07;20.50;;;12.90;99.90;;;;;;5031029;28;20482;-54
2022/05/05 01:20:59;;;;;;;28.93;21.57;;;13.00;99.90;;;;;;5033299;28;20840;-54
2022/05/05 01:23:27;;;;;;;33.53;22.27;;;13.00;99.90;;;;;;5036972;28;20500;-54
2022/05/05 01:28:41;;;;;;;33.93;22.30;;;13.00;99.90;;;;;;5022844;28;20481;-53
2022/05/05 01:31:08;;;;;;;30.87;21.77;;;13.10;99.90;;;;;;5035863;28;20487;-54
2022/05/05 01:33:35;;;;;;;25.90;19.97;;;13.20;99.90;;;;;;5037215;28;21053;-54
2022/05/05 01:36:03;;;;;;;27.23;21.00;;;13.30;99.90;;;;;;5035928;28;20901;-54
2022/05/05 01:38:36;;;;;;;27.10;20.07;;;13.40;99.90;;;;;;5033787;28;20492;-54
2022/05/05 01:41:04;;;;;;;24.47;19.37;;;13.50;99.90;;;;;;5037516;28;21167;-53
2022/05/05 01:43:31;;;;;;;30.83;22.97;;;13.60;99.70;;;;;;5034868;28;20923;-53
2022/05/05 01:45:58;;;;;;;29.70;21.10;;;13.50;99.70;;;;;;5033535;28;20495;-54
2022/05/05 01:48:24;;;;;;;27.37;19.90;;;13.40;99.90;;;;;;5033045;28;21009;-54
2022/05/05 01:50:51;;;;;;;24.27;20.23;;;13.40;99.90;;;;;;5039921;28;20541;-54
2022/05/05 01:53:18;;;;;;;28.37;19.60;;;13.30;99.90;;;;;;5037415;28;20548;-54
2022/05/05 01:55:46;;;;;;;25.83;20.60;;;13.20;99.90;;;;;;5037578;28;20890;-54
2022/05/05 01:58:13;;;;;;;28.87;21.57;;;13.20;99.90;;;;;;5040664;28;20485;-54
2022/05/05 02:00:40;;;;;;;28.40;20.60;;;13.30;99.90;;;;;;5040753;28;20483;-53
2022/05/05 02:03:12;;;;;;;27.20;19.17;;;13.40;99.90;;;;;;5041058;28;20480;-54
2022/05/05 02:05:40;;;;;;;20.90;16.67;;;13.50;99.90;;;;;;5036514;28;20477;-53
2022/05/05 02:08:07;;;;;;;25.73;18.67;;;13.50;99.90;;;;;;5039439;28;20491;-54
2022/05/05 02:10:34;;;;;;;22.07;17.10;;;13.50;99.90;;;;;;5038343;28;20470;-54
2022/05/05 02:13:02;;;;;;;25.77;18.67;;;13.50;99.90;;;;;;5040205;28;20490;-53
2022/05/05 02:15:28;;;;;;;23.50;17.30;;;13.40;99.90;;;;;;5039006;28;20482;-53
2022/05/05 02:17:55;;;;;;;24.20;18.50;;;13.40;99.90;;;;;;5039367;28;20487;-54
2022/05/05 02:20:22;;;;;;;23.90;18.20;;;13.50;99.90;;;;;;5033354;28;20483;-54
2022/05/05 02:22:49;;;;;;;21.53;17.10;;;13.60;99.90;;;;;;5068840;28;20559;-54
2022/05/05 02:25:15;;;;;;;24.77;17.43;;;13.70;99.60;;;;;;5038559;28;21039;-55
2022/05/05 02:27:49;;;;;;;20.47;16.20;;;13.90;99.30;;;;;;5039803;28;20492;-54
2022/05/05 02:30:19;;;;;;;23.37;17.77;;;14.00;99.10;;;;;;5028990;28;20480;-54
2022/05/05 02:32:45;;;;;;;25.27;17.70;;;14.00;99.00;;;;;;5034275;28;20502;-54
2022/05/05 02:35:13;;;;;;;21.23;15.70;;;13.90;99.30;;;;;;5041389;28;20542;-54
2022/05/05 02:40:24;;;;;;;19.87;16.93;;;13.80;99.60;;;;;;5038662;28;20507;-55
2022/05/05 02:42:51;;;;;;;20.33;16.50;;;13.70;99.70;;;;;;5039679;28;20490;-55
2022/05/05 02:45:19;;;;;;;20.07;15.50;;;13.80;99.50;;;;;;5038974;28;20472;-55
2022/05/05 02:47:47;;;;;;;19.70;15.13;;;13.90;99.30;;;;;;5029782;28;20543;-54
2022/05/05 02:50:14;;;;;;;24.33;18.83;;;14.00;99.20;;;;;;5051301;28;20556;-54
2022/05/05 02:52:40;;;;;;;21.07;17.30;;;14.00;99.20;;;;;;5039184;28;20907;-54
2022/05/05 02:55:07;;;;;;;20.00;15.37;;;13.90;99.30;;;;;;5040046;28;20527;-54
2022/05/05 02:57:33;;;;;;;24.70;16.63;;;13.80;99.60;;;;;;5038461;28;20484;-54
2022/05/05 03:00:00;;;;;;;20.30;15.57;;;13.90;99.80;;;;;;5038510;28;20644;-54
2022/05/05 03:02:29;;;;;;;22.10;16.50;;;13.90;99.40;;;;;;5036697;28;20506;-54
2022/05/05 03:04:55;;;;;;;21.20;15.90;;;14.00;99.30;;;;;;5038290;28;20506;-54
2022/05/05 03:07:23;;;;;;;21.13;16.50;;;14.10;99.20;;;;;;5035712;28;20487;-54
2022/05/05 03:09:49;;;;;;;21.40;17.37;;;14.10;99.10;;;;;;5036583;28;20485;-54
2022/05/05 03:12:16;;;;;;;21.97;17.10;;;14.10;99.00;;;;;;5040741;28;20479;-53
2022/05/05 03:14:44;;;;;;;24.20;16.57;;;14.10;98.90;;;;;;5038817;28;21036;-54
2022/05/05 03:17:10;;;;;;;22.83;15.93;;;14.10;98.80;;;;;;5037118;28;20964;-54
2022/05/05 03:19:38;;;;;;;21.63;16.70;;;14.10;99.00;;;;;;5036455;28;20488;-54
2022/05/05 03:22:05;;;;;;;22.47;17.37;;;14.20;98.80;;;;;;5038814;28;20547;-54
2022/05/05 03:24:32;;;;;;;21.90;16.87;;;14.10;98.40;;;;;;5039508;28;20771;-54
2022/05/05 03:27:00;;;;;;;23.30;14.83;;;14.10;98.00;;;;;;5037290;28;20471;-56
2022/05/05 03:29:27;;;;;;;15.77;11.87;;;14.00;97.70;;;;;;5039319;28;20482;-55
2022/05/05 03:31:54;;;;;;;19.50;12.20;;;13.90;97.10;;;;;;5037615;28;20844;-54
2022/05/05 03:34:21;;;;;;;23.80;11.87;;;13.90;96.80;;;;;;5038048;28;20552;-53
2022/05/05 03:36:49;;;;;;;14.73;11.00;;;13.80;96.70;;;;;;5038015;28;20589;-53
2022/05/05 03:39:16;;;;;;;21.23;10.10;;;13.80;96.40;;;;;;5036223;28;20477;-54
2022/05/05 03:41:42;;;;;;;18.03;9.37;;;13.70;96.20;;;;;;5038147;28;20475;-55
2022/05/05 03:44:09;;;;;;;15.13;9.40;;;13.70;95.70;;;;;;5037043;28;20480;-54
2022/05/05 03:46:36;;;;;;;17.93;11.53;;;13.60;95.60;;;;;;5038254;28;20883;-53
2022/05/05 03:49:02;;;;;;;19.73;10.27;;;13.50;95.80;;;;;;5037448;28;20487;-54
2022/05/05 03:51:29;;;;;;;16.10;9.60;;;13.40;95.60;;;;;;5038482;28;21068;-54
2022/05/05 03:53:57;;;;;;;18.90;8.37;;;13.30;95.90;;;;;;5036756;28;20486;-55
2022/05/05 03:56:23;;;;;;;13.80;8.60;;;13.20;95.70;;;;;;5038598;28;20478;-54
2022/05/05 03:58:50;;;;;;;12.37;10.27;;;13.20;95.70;;;;;;5035811;28;20836;-54
2022/05/05 04:01:17;;;;;;;11.80;9.00;;;13.20;95.80;;;;;;5030558;28;20940;-54
2022/05/05 04:03:44;;;;;;;15.57;9.20;;;13.30;95.90;;;;;;5045586;28;20475;-54
2022/05/05 04:06:11;;;;;;;22.40;9.90;;;13.30;95.70;;;;;;5036403;28;20545;-54
2022/05/05 04:08:39;;;;;;;24.17;9.30;;;13.40;95.60;;;;;;5036626;28;20887;-55
2022/05/05 04:11:07;;;;;;;23.27;11.77;;;13.50;95.70;;;;;;5038577;28;20529;-55
2022/05/05 04:13:34;;;;;;;18.67;11.27;;;13.50;95.50;;;;;;5037848;28;20491;-55
2022/05/05 04:16:01;;;;;;;17.37;11.60;;;13.50;95.50;;;;;;5039231;28;20479;-55
2022/05/05 04:18:27;;;;;;;16.73;9.83;;;13.60;95.50;;;;;;5037564;28;20919;-56
2022/05/05 04:20:54;;;;;;;20.90;10.10;;;13.60;95.40;;;;;;5037590;28;20976;-55
2022/05/05 04:23:21;;;;;;;13.40;10.00;;;13.60;95.70;;;;;;5039102;28;20490;-56
2022/05/05 04:25:49;;;;;;;15.10;10.30;;;13.60;95.40;;;;;;5036071;28;20491;-55
2022/05/05 04:28:17;;;;;;;22.50;11.30;;;13.60;95.70;;;;;;5037247;28;20538;-55
2022/05/05 04:30:44;;;;;;;19.90;10.47;;;13.60;95.50;;;;;;5037084;28;20834;-55
2022/05/05 04:33:12;;;;;;;19.70;11.77;;;13.60;95.50;;;;;;5037523;28;20557;-56
2022/05/05 04:35:39;;;;;;;16.57;9.80;;;13.60;95.70;;;;;;5033830;28;20503;-56
2022/05/05 04:38:06;;;;;;;13.33;9.97;;;13.50;95.30;;;;;;5034997;28;20491;-57
2022/05/05 04:40:33;;;;;;;19.07;10.17;;;13.40;95.30;;;;;;5034455;28;20515;-57
2022/05/05 04:42:59;;;;;;;13.40;9.13;;;13.30;95.30;;;;;;5024401;28;20984;-57
2022/05/05 04:45:27;;;;;;;16.80;9.10;;;13.30;95.50;;;;;;5052862;28;20495;-57
2022/05/05 04:47:55;;;;;;;12.83;7.47;;;13.30;95.30;;;;;;5034581;28;20472;-57
2022/05/05 04:50:22;;;;;;;20.70;8.80;;;13.30;95.00;;;;;;5038049;28;20965;-56
2022/05/05 04:52:49;;;;;;;12.70;9.23;;;13.30;95.10;;;;;;5038187;28;20472;-56
2022/05/05 04:55:15;;;;;;;14.77;8.73;;;13.30;95.00;;;;;;5038250;28;20474;-55
2022/05/05 04:57:42;;;;;;;10.53;8.43;;;13.30;94.80;;;;;;5034745;28;20488;-56
2022/05/05 05:00:10;;;;;;;14.73;8.83;;;13.30;95.00;;;;;;5036639;28;20996;-56
2022/05/05 05:02:38;;;;;;;10.43;7.93;;;13.20;94.80;;;;;;5037086;28;20480;-55
2022/05/05 05:05:05;;;;;;;11.13;8.50;;;13.20;95.00;;;;;;5036897;28;20481;-55
2022/05/05 05:07:32;;;;;;;13.80;7.70;;;13.10;95.10;;;;;;5036116;28;20757;-55
2022/05/05 05:09:58;;;;;;;12.10;8.20;;;13.10;95.10;;;;;;5033497;28;20479;-55
2022/05/05 05:12:25;;;;;;;12.87;7.77;;;13.00;94.80;;;;;;5038111;28;20838;-56
2022/05/05 05:14:52;;;;;;;14.63;5.93;;;13.00;95.00;;;;;;5036896;28;20499;-55
2022/05/05 05:17:18;;;;;;;16.50;7.20;;;12.90;95.10;;;;;;5036848;28;20499;-56
2022/05/05 05:19:47;;;;;;;9.63;5.93;;;12.80;95.00;;;;;;5052753;28;20508;-57
2022/05/05 05:22:14;;;;;;;10.90;6.80;;;12.80;95.10;;;;;;5040968;28;20495;-57
2022/05/05 05:24:40;;;;;;;17.00;7.37;;;12.80;95.40;;;;;;5036527;28;20499;-57
2022/05/05 05:27:07;;;;;;;9.90;6.57;;;12.80;95.20;;;;;;5040101;28;20486;-57
2022/05/05 05:29:34;;;;;;;11.30;7.07;;;12.80;94.90;;;;;;5035694;28;20575;-56
2022/05/05 05:32:00;;;;;;;11.20;8.00;;;12.80;94.90;;;;;;5033979;28;20491;-57
2022/05/05 05:34:27;;;;;;;8.13;5.90;;;12.80;95.00;;;;;;5047915;28;20535;-56
2022/05/05 05:36:55;;;;;;;11.57;6.60;;;12.90;94.90;;;;;;5035986;28;21075;-57
2022/05/05 05:39:22;;;;;;;8.40;7.03;;;13.00;95.00;;;;;;5023116;28;20544;-57
2022/05/05 05:41:49;;;;;;;11.73;6.80;;;13.00;95.10;;;;;;5038215;28;20490;-57
2022/05/05 05:44:15;;;;;;;8.17;7.10;;;13.00;95.00;;;;;;5037554;28;20549;-59
2022/05/05 05:46:43;;;;;;;11.40;7.30;;;13.10;94.80;;;;;;5045568;28;20478;-58
2022/05/05 05:49:10;;;;;;;8.90;6.93;;;13.20;94.90;;;;;;5019896;28;20491;-58
2022/05/05 05:51:37;;;;;;;14.73;7.03;;;13.10;94.60;;;;;;5056964;28;20580;-58
2022/05/05 05:54:05;;;;;;;14.10;5.73;;;13.20;94.50;;;;;;5034960;28;20495;-58
2022/05/05 05:56:32;;;;;;;15.73;8.70;;;13.20;94.40;;;;;;5037691;28;21454;-58
2022/05/05 05:59:01;;;;;;;16.40;10.30;;;13.20;94.60;;;;;;5036834;28;20933;-58
2022/05/05 06:04:10;;;;;;;12.33;6.43;;;13.40;94.90;;;;;;5032944;28;20888;-58
2022/05/05 06:06:37;;;;;;;13.73;6.30;;;13.40;94.70;;;;;;5035045;28;20935;-58
2022/05/05 06:09:05;;;;;;;10.40;6.53;;;13.50;94.80;;;;;;5032009;28;20588;-57
2022/05/05 06:11:32;;;;;;;11.60;7.10;;;13.50;94.70;;;;;;5035958;28;20488;-57
2022/05/05 06:13:58;;;;;;;12.07;7.23;;;13.50;94.90;;;;;;5037080;28;20487;-57
2022/05/05 06:16:25;;;;;;;8.00;6.07;;;13.60;94.70;;;;;;5024040;28;20481;-57
2022/05/05 06:18:52;;;;;;;9.10;7.00;;;13.60;94.40;;;;;;5031361;28;21094;-55
2022/05/05 06:21:19;;;;;;;13.00;7.83;;;13.50;94.50;;;;;;5035485;28;20502;-56
2022/05/05 06:23:46;;;;;;;11.10;7.03;;;13.50;94.60;;;;;;5034996;28;21020;-56
2022/05/05 06:26:14;;;;;;;11.30;6.90;;;13.50;94.70;;;;;;5037429;28;20523;-57
2022/05/05 06:28:41;;;;;;;11.40;6.53;;;13.50;94.20;;;;;;5033339;28;21059;-57
2022/05/05 06:31:07;;;;;;;14.63;8.30;;;13.50;94.40;;;;;;5036889;28;20483;-57
2022/05/05 06:33:34;;;;;;;13.10;7.33;;;13.50;94.50;;;;;;5033856;28;20479;-57
2022/05/05 06:36:01;;;;;;;9.63;6.43;;;13.50;94.40;;;;;;5035360;28;20475;-56
2022/05/05 06:38:27;;;;;;;11.77;6.80;;;13.50;94.30;;;;;;5039092;28;20894;-57
2022/05/05 06:40:54;;;;;;;11.33;7.13;;;13.50;94.40;;;;;;5037839;28;20756;-56
2022/05/05 06:43:22;;;;;;;10.03;6.93;;;13.50;94.70;;;;;;5039423;28;20480;-56
2022/05/05 06:45:49;;;;;;;7.50;6.43;;;13.50;94.60;;;;;;5039684;28;20812;-56
2022/05/05 06:48:16;;;;;;;12.60;6.67;;;13.60;94.50;;;;;;5034992;28;21012;-56
2022/05/05 06:50:43;;;;;;;13.20;7.87;;;13.60;94.90;;;;;;5036602;28;20972;-56
2022/05/05 06:53:10;;;;;;;13.17;6.40;;;13.60;94.60;;;;;;5040893;28;20827;-56
2022/05/05 06:55:36;;;;;;;13.60;5.93;;;13.70;94.70;;;;;;5039332;28;20493;-56
2022/05/05 06:58:03;;;;;;;7.70;5.93;;;13.70;94.40;;;;;;5036934;28;20480;-56
2022/05/05 07:03:12;;;;;;;8.53;7.10;;;13.80;94.60;;;;;;5037501;28;20947;-56
2022/05/05 07:05:37;;;;;;;11.33;6.70;;;13.90;94.70;;;;;;5038544;28;20578;-56
2022/05/05 07:08:05;;;;;;;8.27;7.00;;;13.90;94.60;;;;;;5031823;28;20486;-56
2022/05/05 07:13:15;;;;;;;8.60;6.10;;;13.90;94.00;;;;;;5036834;28;20968;-56
2022/05/05 07:15:43;;;;;;;13.50;7.10;;;13.90;94.10;;;;;;5037948;28;20481;-56
2022/05/05 07:18:10;;;;;;;11.30;7.90;;;13.90;94.20;;;;;;5035556;28;20486;-56
2022/05/05 07:20:37;;;;;;;11.07;7.30;;;13.90;94.30;;;;;;5038022;28;20497;-57
2022/05/05 07:23:04;;;;;;;10.93;9.10;;;13.90;94.30;;;;;;5038604;28;20491;-57
2022/05/05 07:25:31;;;;;;;13.57;7.37;;;13.80;94.00;;;;;;5036935;28;20563;-56
2022/05/05 07:27:58;;;;;;;9.53;6.47;;;13.70;94.00;;;;;;5037702;28;20486;-56
2022/05/05 07:30:25;;;;;;;12.17;7.73;;;13.80;94.40;;;;;;5039538;28;20615;-56
2022/05/05 07:32:53;;;;;;;9.23;6.90;;;13.80;94.20;;;;;;5035854;28;20486;-55
2022/05/05 07:35:20;;;;;;;13.53;6.93;;;13.80;94.30;;;;;;5038917;28;20493;-53
2022/05/05 07:37:46;;;;;;;15.37;8.20;;;13.80;94.60;;;;;;5036912;28;20493;-54
2022/05/05 07:40:13;;;;;;;12.27;7.20;;;13.80;94.90;;;;;;5039248;28;20904;-53
2022/05/05 07:42:41;;;;;;;14.50;7.37;;;13.80;95.00;;;;;;5038027;28;20881;-53
2022/05/05 07:45:09;;;;;;;15.37;8.37;;;13.80;95.30;;;;;;5039258;28;20486;-54
2022/05/05 07:47:36;;;;;;;15.90;8.77;;;13.90;95.50;;;;;;5038161;28;20483;-53
2022/05/05 07:50:05;;;;;;;13.80;7.60;;;13.90;95.60;;;;;;5036565;28;20499;-53
2022/05/05 07:52:32;;;;;;;13.57;8.07;;;14.00;95.50;;;;;;5036400;28;20484;-54
2022/05/05 07:54:59;;;;;;;16.53;9.50;;;14.10;95.20;;;;;;5037451;28;20490;-54
2022/05/05 07:57:25;;;;;;;11.50;8.20;;;14.20;95.60;;;;;;5036728;28;20484;-54
2022/05/05 07:59:52;;;;;;;13.67;8.83;;;14.30;95.70;;;;;;5030855;28;20493;-55
2022/05/05 08:02:19;;;;;;;13.87;9.10;;;14.30;95.40;;;;;;5065240;28;20490;-55
2022/05/05 08:04:46;;;;;;;12.03;9.03;;;14.40;95.40;;;;;;5033697;28;20485;-55
2022/05/05 08:07:14;;;;;;;16.50;9.83;;;14.40;95.60;;;;;;5036377;28;20488;-55
2022/05/05 08:09:41;;;;;;;12.03;9.07;;;14.50;95.60;;;;;;5036367;28;20486;-55
2022/05/05 08:12:09;;;;;;;18.37;10.33;;;14.50;95.80;;;;;;5041110;28;20482;-55
2022/05/05 08:14:35;;;;;;;10.83;8.30;;;14.50;95.90;;;;;;5055059;28;20472;-54
2022/05/05 08:17:02;;;;;;;11.57;8.30;;;14.60;95.90;;;;;;5036223;28;20485;-54
2022/05/05 08:19:29;;;;;;;10.67;8.93;;;14.60;95.60;;;;;;5037466;28;20559;-54
2022/05/05 08:21:56;;;;;;;18.33;9.30;;;14.60;95.40;;;;;;5036916;28;20493;-54
2022/05/05 08:29:52;;;;;;;14.47;8.27;;;14.70;95.20;;;;;;5033532;28;20571;-55
2022/05/05 08:32:19;;;;;;;10.30;8.20;;;14.80;95.50;;;;;;5039033;28;20507;-54
2022/05/05 08:34:46;;;;;;;9.40;8.33;;;14.80;95.60;;;;;;5037577;28;20491;-54
2022/05/05 08:37:12;;;;;;;19.83;8.80;;;14.90;95.40;;;;;;5036746;28;20497;-54
2022/05/05 08:39:40;;;;;;;11.33;7.90;;;14.90;95.40;;;;;;5034084;28;20500;-54
2022/05/05 08:42:08;;;;;;;10.77;8.50;;;14.90;95.60;;;;;;5038610;28;21044;-54
2022/05/05 08:44:34;;;;;;;11.63;8.20;;;14.90;95.30;;;;;;5032148;28;20493;-55
2022/05/05 08:47:02;;;;;;;13.20;8.03;;;14.90;95.20;;;;;;5036039;28;20502;-55
2022/05/05 08:49:31;;;;;;;12.10;8.73;;;14.90;95.30;;;;;;5034546;28;20529;-55
2022/05/05 08:52:01;;;;;;;14.00;8.63;;;14.90;95.30;;;;;;5037886;28;21110;-55
2022/05/05 08:54:32;;;;;;;15.40;8.63;;;14.90;95.10;;;;;;5037784;28;20491;-55
2022/05/05 08:57:00;;;;;;;12.80;8.17;;;15.00;95.00;;;;;;5036443;28;20492;-55
2022/05/05 08:59:27;;;;;;;16.90;9.43;;;14.90;94.80;;;;;;5034008;28;20541;-55
2022/05/05 09:01:54;;;;;;;14.17;8.33;;;14.90;94.90;;;;;;5033068;28;20478;-55
2022/05/05 09:04:21;;;;;;;15.37;8.60;;;14.90;94.90;;;;;;5036624;28;20518;-55
2022/05/05 09:06:48;;;;;;;16.20;9.60;;;14.90;95.00;;;;;;5031818;28;21036;-56
2022/05/05 09:09:32;;;;;;;12.00;8.70;;;14.90;95.00;;;;;;5031338;28;20487;-56
2022/05/05 09:12:12;;;;;;;16.50;10.00;;;14.90;95.00;;;;;;5027835;28;20490;-55
2022/05/05 09:14:41;;;;;;;15.63;10.23;;;15.00;95.20;;;;;;5060871;28;20987;-56
2022/05/05 09:17:10;;;;;;;18.93;9.33;;;15.00;95.20;;;;;;5034546;28;20518;-56
2022/05/05 09:19:39;;;;;;;14.13;9.17;;;15.00;95.10;;;;;;5029130;28;20485;-56
2022/05/05 09:22:07;;;;;;;14.57;9.70;;;15.10;95.10;;;;;;5037249;28;20481;-56
2022/05/05 09:24:40;;;;;;;16.03;11.00;;;15.00;95.10;;;;;;5037395;28;20524;-56
2022/05/05 09:27:23;;;;;;;19.63;12.07;;;15.10;95.00;;;;;;5032074;28;20761;-57
2022/05/05 09:30:05;;;;;;;21.53;11.23;;;15.10;94.90;;;;;;5035041;28;20593;-57
2022/05/05 09:32:33;;;;;;;17.57;10.20;;;15.10;95.20;;;;;;5029987;28;20468;-57
2022/05/05 09:35:02;;;;;;;19.80;10.93;;;15.10;95.00;;;;;;5025881;28;20493;-57
2022/05/05 09:37:29;;;;;;;15.17;10.00;;;15.10;95.00;;;;;;5058118;28;20487;-57
2022/05/05 09:39:57;;;;;;;19.60;11.53;;;15.20;95.70;;;;;;5030276;28;20489;-57
2022/05/05 09:42:40;;;;;;;15.73;10.60;;;15.30;95.20;;;;;;5045797;28;20866;-58
2022/05/05 09:45:18;;;;;;;16.20;11.27;;;15.30;95.20;;;;;;5032719;28;20537;-57
2022/05/05 09:47:46;;;;;;;18.37;11.10;;;15.40;95.20;;;;;;5019065;28;20584;-57
2022/05/05 09:50:13;;;;;;;16.47;11.90;;;15.50;95.40;;;;;;5029521;28;20495;-58
2022/05/05 09:58:15;;;;;;;15.40;10.57;;;15.40;94.30;;;;;;5055045;28;20952;-58
2022/05/05 10:00:49;;;;;;;20.90;11.43;;;15.30;94.50;;;;;;5035154;28;20596;-57
2022/05/05 10:06:12;;;;;;;15.90;11.20;;;15.40;94.90;;;;;;5035398;28;20519;-57
2022/05/05 10:08:42;;;;;;;14.63;9.93;;;15.50;94.80;;;;;;5034872;28;20472;-57
2022/05/05 10:11:09;;;;;;;19.10;11.90;;;15.60;94.80;;;;;;5038904;28;20471;-57
2022/05/05 10:13:39;;;;;;;18.23;12.10;;;15.70;94.40;;;;;;5039936;28;20493;-58
2022/05/05 10:16:08;;;;;;;18.07;12.47;;;15.60;94.40;;;;;;5041926;28;20506;-57
2022/05/05 10:18:37;;;;;;;21.47;13.43;;;15.70;94.40;;;;;;5054727;28;20512;-58
2022/05/05 10:21:05;;;;;;;18.30;13.70;;;15.80;94.30;;;;;;5040742;28;20477;-57
2022/05/05 10:23:41;;;;;;;20.47;14.13;;;15.80;94.50;;;;;;5041063;28;20481;-57
2022/05/05 10:26:09;;;;;;;16.50;13.60;;;15.90;94.50;;;;;;5032311;28;20826;-58
2022/05/05 10:28:43;;;;;;;16.53;12.50;;;15.90;94.60;;;;;;5050146;28;20711;-58
2022/05/05 10:31:14;;;;;;;22.03;13.33;;;16.00;94.80;;;;;;5037158;28;20571;-58
2022/05/05 10:34:00;;;;;;;15.47;11.47;;;16.00;94.50;;;;;;5029539;28;21017;-58
2022/05/05 10:36:28;;;;;;;17.17;12.07;;;15.90;94.30;;;;;;5047845;28;20820;-58
2022/05/05 10:38:55;;;;;;;16.60;12.70;;;15.90;94.20;;;;;;5037216;28;20509;-58
2022/05/05 10:41:41;;;;;;;22.93;13.37;;;15.90;94.20;;;;;;5040192;28;21027;-59
2022/05/05 10:44:23;;;;;;;21.30;13.07;;;15.80;94.80;;;;;;5039428;28;21065;-57
2022/05/05 10:47:03;;;;;;;15.13;12.17;;;15.90;94.50;;;;;;5036526;28;20487;-57
2022/05/05 10:49:44;;;;;;;20.10;12.80;;;15.80;94.30;;;;;;5036677;28;20915;-58
2022/05/05 10:52:28;;;;;;;18.57;13.17;;;15.80;94.60;;;;;;5040127;28;20561;-58
2022/05/05 10:54:55;;;;;;;20.10;13.90;;;15.80;94.60;;;;;;5018018;28;20487;-57
2022/05/05 10:57:43;;;;;;;19.43;12.77;;;15.80;94.40;;;;;;5059394;28;20556;-58
2022/05/05 11:00:13;;;;;;;22.07;13.70;;;15.80;94.30;;;;;;5033321;28;20487;-58
2022/05/05 11:02:41;;;;;;;27.40;14.33;;;15.80;94.20;;;;;;5038966;28;20489;-56
2022/05/05 11:05:26;;;;;;;25.30;14.93;;;15.80;94.50;;;;;;5039677;28;20572;-58
2022/05/05 11:07:53;;;;;;;18.87;12.97;;;15.80;94.20;;;;;;5021345;28;20486;-58
2022/05/05 11:10:45;;;;;;;18.73;13.00;;;15.80;94.30;;;;;;5036950;28;20489;-58
2022/05/05 11:13:34;;;;;;;22.53;14.27;;;15.90;94.20;;;;;;5037331;28;20481;-58
2022/05/05 11:22:10;;;;;;;22.27;14.93;;;16.10;93.80;;;;;;5032013;28;21013;-58
2022/05/05 11:24:37;;;;;;;18.40;12.40;;;16.10;93.50;;;;;;5029247;28;20503;-59
2022/05/05 11:27:05;;;;;;;21.53;13.40;;;16.20;94.10;;;;;;5033409;28;20493;-58
2022/05/05 11:29:32;;;;;;;19.33;13.50;;;16.30;93.80;;;;;;5028881;28;20918;-59
2022/05/05 11:32:02;;;;;;;16.17;12.23;;;16.40;93.80;;;;;;5057183;28;20540;-59
2022/05/05 11:34:33;;;;;;;19.40;14.30;;;16.40;92.90;;;;;;5035624;28;21065;-58
2022/05/05 11:37:00;;;;;;;21.77;14.30;;;16.60;93.30;;;;;;5032017;28;20554;-59
2022/05/05 11:39:27;;;;;;;17.13;12.60;;;16.60;93.20;;;;;;5034483;28;21035;-59
2022/05/05 11:42:03;;;;;;;19.53;13.53;;;16.60;92.90;;;;;;5033663;28;20490;-60
2022/05/05 11:44:29;;;;;;;21.90;13.97;;;16.60;92.70;;;;;;5034232;28;20485;-60
2022/05/05 11:46:58;;;;;;;17.53;13.33;;;16.60;92.50;;;;;;5036008;28;20491;-60
2022/05/05 11:49:32;;;;;;;19.93;13.83;;;16.60;92.40;;;;;;5022641;28;20818;-60
2022/05/05 11:51:59;;;;;;;19.77;13.10;;;16.70;92.70;;;;;;5020317;28;20477;-60
2022/05/05 11:54:28;;;;;;;16.23;12.80;;;16.70;92.40;;;;;;5034689;28;20495;-60
2022/05/05 11:56:55;;;;;;;28.77;14.07;;;16.70;92.60;;;;;;5032948;28;20483;-60
2022/05/05 12:02:10;;;;;;;16.83;13.53;;;16.80;92.40;;;;;;5033855;28;20505;-58
2022/05/05 12:04:40;;;;;;;19.50;13.70;;;16.80;92.50;;;;;;5029500;28;20567;-58
2022/05/05 12:07:10;;;;;;;15.83;12.67;;;16.70;92.50;;;;;;5033100;28;20491;-58
2022/05/05 12:09:37;;;;;;;27.10;16.23;;;16.70;92.10;;;;;;5030553;28;21102;-58
2022/05/05 12:12:18;;;;;;;25.00;14.37;;;16.60;92.20;;;;;;5034020;28;20627;-57
2022/05/05 12:14:47;;;;;;;17.57;12.50;;;16.60;92.50;;;;;;5032494;28;20489;-58
2022/05/05 12:17:18;;;;;;;17.40;12.70;;;16.50;92.30;;;;;;5025951;28;20540;-58
2022/05/05 12:19:48;;;;;;;23.33;12.77;;;16.50;91.80;;;;;;5041379;28;20494;-58
2022/05/05 12:22:19;;;;;;;22.67;13.70;;;16.50;92.10;;;;;;5032389;28;20993;-58
2022/05/05 12:24:46;;;;;;;18.77;15.07;;;16.50;92.40;;;;;;5032715;28;20492;-57
2022/05/05 12:27:13;;;;;;;27.73;14.17;;;16.40;92.00;;;;;;5030103;28;20492;-58
2022/05/05 12:29:41;;;;;;;16.57;12.27;;;16.40;92.30;;;;;;5040759;28;20558;-58
2022/05/05 12:32:13;;;;;;;17.67;13.13;;;16.50;92.00;;;;;;5024451;28;20483;-58
2022/05/05 12:34:40;;;;;;;21.43;13.37;;;16.50;92.40;;;;;;5059054;28;20477;-59
2022/05/05 12:37:17;;;;;;;32.00;22.20;;;16.50;92.20;;;;;;5033701;28;20495;-58
2022/05/05 12:39:56;;;;;;;23.67;14.60;;;16.60;92.20;;;;;;5032895;28;20485;-58
2022/05/05 12:42:23;;;;;;;16.13;13.70;;;16.60;92.80;;;;;;5033025;28;20591;-58
2022/05/05 12:44:51;;;;;;;21.23;12.17;;;16.60;92.40;;;;;;5031780;28;20482;-58
2022/05/05 12:47:26;;;;;;;22.43;14.67;;;16.70;92.10;;;;;;5030795;28;21270;-58
2022/05/05 12:49:53;;;;;;;20.37;13.80;;;16.60;92.30;;;;;;5032308;28;21592;-58
2022/05/05 13:00:55;;;;;;;22.13;15.17;;;16.80;92.70;;;;;;5031695;28;20911;-59
2022/05/05 13:03:23;;;;;;;20.33;12.73;;;16.80;92.20;;;;;;5034561;28;20492;-58
2022/05/05 13:05:50;;;;;;;21.77;13.23;;;16.80;92.00;;;;;;5032295;28;20488;-58
2022/05/05 13:08:18;;;;;;;22.63;14.27;;;16.80;92.40;;;;;;5034297;28;20485;-59
2022/05/05 13:10:45;;;;;;;20.53;14.53;;;16.90;92.20;;;;;;5031804;28;20970;-58
2022/05/05 13:13:12;;;;;;;22.80;14.20;;;16.90;92.50;;;;;;5031726;28;20486;-58
2022/05/05 13:15:39;;;;;;;22.77;14.80;;;16.80;92.20;;;;;;5033525;28;20488;-58
2022/05/05 13:18:06;;;;;;;23.13;14.37;;;16.70;91.60;;;;;;5030938;28;20484;-57
2022/05/05 13:20:34;;;;;;;21.83;14.43;;;16.90;91.40;;;;;;5032556;28;20481;-58
2022/05/05 13:23:01;;;;;;;35.40;23.10;;;16.80;91.00;;;;;;5033236;28;20506;-58
2022/05/05 13:25:29;;;;;;;42.70;23.90;;;16.90;91.60;;;;;;5030876;28;20869;-58